createdAt,value
2022-12-25T00:01:13.872Z,86.02
2022-12-25T00:03:42.099Z,85.78
2022-12-25T00:06:10.417Z,86.03
2022-12-25T00:08:39.860Z,85.68
2022-12-25T00:11:10.345Z,85.41
2022-12-25T00:13:40.287Z,85.74
2022-12-25T00:16:10.342Z,85.21
2022-12-25T00:18:38.785Z,84.71
2022-12-25T00:21:07.871Z,85.21
2022-12-25T00:23:36.317Z,85.95
2022-12-25T00:26:06.120Z,85.56
2022-12-25T00:28:34.325Z,84.92
2022-12-25T00:31:07.316Z,85.51
2022-12-25T00:33:36.554Z,84.74
2022-12-25T00:36:06.268Z,85.49
2022-12-25T00:38:35.641Z,85.55
2022-12-25T00:41:06.367Z,85.63
2022-12-25T00:43:34.481Z,86.06
2022-12-25T00:46:04.165Z,86.01
2022-12-25T00:48:34.099Z,85.53
2022-12-25T00:51:04.085Z,85.80
2022-12-25T00:53:32.286Z,86.19
2022-12-25T00:56:02.303Z,86.00
2022-12-25T00:58:32.332Z,86.14
2022-12-25T01:01:00.568Z,85.87
2022-12-25T01:03:29.204Z,86.21
2022-12-25T01:06:00.635Z,85.49
2022-12-25T01:08:28.999Z,86.18
2022-12-25T01:10:57.099Z,85.52
2022-12-25T01:13:26.158Z,85.00
2022-12-25T01:15:54.575Z,86.15
2022-12-25T01:18:24.294Z,85.35
2022-12-25T01:20:52.587Z,85.15
2022-12-25T01:23:22.024Z,85.80
2022-12-25T01:25:50.227Z,85.33
2022-12-25T01:28:18.372Z,86.27
2022-12-25T01:30:49.681Z,85.87
2022-12-25T01:33:17.829Z,86.10
2022-12-25T01:35:45.991Z,85.28
2022-12-25T01:38:14.138Z,85.15
2022-12-25T01:40:43.560Z,86.10
2022-12-25T01:43:24.120Z,85.49
2022-12-25T01:45:53.538Z,85.80
2022-12-25T01:48:25.055Z,85.03
2022-12-25T01:50:55.614Z,86.18
2022-12-25T01:53:24.279Z,87.56
2022-12-25T01:55:57.517Z,87.10
2022-12-25T01:58:26.248Z,86.79
2022-12-25T02:00:54.643Z,86.81
2022-12-25T02:03:23.420Z,87.16
2022-12-25T02:05:52.486Z,87.12
2022-12-25T02:08:22.447Z,86.65
2022-12-25T02:10:50.710Z,87.34
2022-12-25T02:13:21.187Z,86.80
2022-12-25T02:15:56.272Z,86.83
2022-12-25T02:18:36.106Z,87.25
2022-12-25T02:21:31.497Z,86.62
2022-12-25T02:24:11.290Z,87.03
2022-12-25T02:26:52.490Z,87.26
2022-12-25T02:29:25.995Z,87.15
2022-12-25T02:31:59.425Z,87.36
2022-12-25T02:34:33.998Z,86.84
2022-12-25T02:37:07.391Z,88.00
2022-12-25T02:39:59.812Z,87.45
2022-12-25T02:43:04.722Z,88.02
2022-12-25T02:45:54.671Z,88.00
2022-12-25T02:48:42.405Z,87.72
2022-12-25T02:51:30.393Z,87.51
2022-12-25T02:54:18.771Z,87.17
2022-12-25T02:57:05.998Z,87.89
2022-12-25T02:59:54.035Z,87.58
2022-12-25T03:02:42.531Z,88.16
2022-12-25T03:05:30.481Z,88.76
2022-12-25T03:08:00.562Z,88.45
2022-12-25T03:10:46.767Z,89.71
2022-12-25T03:13:17.593Z,90.68
2022-12-25T03:16:03.996Z,90.85
2022-12-25T03:18:34.110Z,91.64
2022-12-25T03:21:19.546Z,91.72
2022-12-25T03:24:08.508Z,91.62
2022-12-25T03:26:54.243Z,92.86
2022-12-25T03:29:36.320Z,93.92
2022-12-25T03:32:13.116Z,93.71
2022-12-25T03:35:03.485Z,94.00
2022-12-25T03:38:01.233Z,94.04
2022-12-25T03:40:47.776Z,92.93
2022-12-25T03:43:40.271Z,92.40
2022-12-25T03:46:35.466Z,91.87
2022-12-25T03:49:27.546Z,92.04
2022-12-25T03:52:17.015Z,91.51
2022-12-25T03:55:04.386Z,91.16
2022-12-25T03:57:52.738Z,90.84
2022-12-25T04:00:38.430Z,90.83
2022-12-25T04:03:24.210Z,90.66
2022-12-25T04:06:10.214Z,90.59
2022-12-25T04:08:56.958Z,90.59
2022-12-25T04:11:42.734Z,90.05
2022-12-25T04:14:28.486Z,89.87
2022-12-25T04:17:14.377Z,90.31
2022-12-25T04:19:59.971Z,90.32
2022-12-25T04:22:45.704Z,89.63
2022-12-25T04:25:33.132Z,89.62
2022-12-25T04:28:20.103Z,89.67
2022-12-25T04:31:20.572Z,89.64
2022-12-25T04:34:17.699Z,88.98
2022-12-25T04:36:45.817Z,89.77
2022-12-25T04:39:14.316Z,89.79
2022-12-25T04:41:43.761Z,89.49
2022-12-25T04:44:11.968Z,89.83
2022-12-25T04:46:40.521Z,89.80
2022-12-25T04:49:08.648Z,89.16
2022-12-25T04:51:37.782Z,89.46
2022-12-25T04:54:06.067Z,89.75
2022-12-25T04:56:36.404Z,88.91
2022-12-25T04:59:08.219Z,89.36
2022-12-25T05:01:36.570Z,89.53
2022-12-25T05:04:04.839Z,89.11
2022-12-25T05:06:33.011Z,89.23
2022-12-25T05:09:01.184Z,89.12
2022-12-25T05:11:29.272Z,89.81
2022-12-25T05:13:58.324Z,89.22
2022-12-25T05:16:27.897Z,89.35
2022-12-25T05:18:56.022Z,89.28
2022-12-25T05:21:24.211Z,88.81
2022-12-25T05:23:53.019Z,89.03
2022-12-25T05:26:22.534Z,89.49
2022-12-25T05:28:51.012Z,89.41
2022-12-25T05:31:19.735Z,89.24
2022-12-25T05:33:52.291Z,89.03
2022-12-25T05:36:20.730Z,88.58
2022-12-25T05:38:48.893Z,90.30
2022-12-25T05:41:17.108Z,91.47
2022-12-25T05:43:45.354Z,92.21
2022-12-25T05:46:14.528Z,92.42
2022-12-25T05:48:42.939Z,92.29
2022-12-25T05:51:15.076Z,91.89
2022-12-25T05:53:44.477Z,91.10
2022-12-25T05:56:13.023Z,90.95
2022-12-25T05:58:41.628Z,90.45
2022-12-25T06:01:13.952Z,90.41
2022-12-25T06:03:42.207Z,90.46
2022-12-25T06:06:12.778Z,90.26
2022-12-25T06:08:41.086Z,90.42
2022-12-25T06:11:10.382Z,90.24
2022-12-25T06:13:39.054Z,90.33
2022-12-25T06:16:08.207Z,89.84
2022-12-25T06:18:37.379Z,89.85
2022-12-25T06:21:08.389Z,89.96
2022-12-25T06:23:38.208Z,89.80
2022-12-25T06:26:07.294Z,89.98
2022-12-25T06:28:35.497Z,89.50
2022-12-25T06:31:07.782Z,89.45
2022-12-25T06:33:36.718Z,89.92
2022-12-25T06:36:09.001Z,89.97
2022-12-25T06:38:38.650Z,89.48
2022-12-25T06:41:08.346Z,89.82
2022-12-25T06:43:36.535Z,90.00
2022-12-25T06:46:05.853Z,89.49
2022-12-25T06:48:34.421Z,90.05
2022-12-25T06:51:04.157Z,89.27
2022-12-25T06:53:39.925Z,89.25
2022-12-25T06:56:18.871Z,89.73
2022-12-25T06:58:49.069Z,89.60
2022-12-25T07:01:20.424Z,89.04
2022-12-25T07:03:49.772Z,89.19
2022-12-25T07:06:18.733Z,89.40
2022-12-25T07:08:46.947Z,89.04
2022-12-25T07:11:16.486Z,88.80
2022-12-25T07:13:45.180Z,88.64
2022-12-25T07:16:14.231Z,90.07
2022-12-25T07:18:42.737Z,90.86
2022-12-25T07:21:13.078Z,90.71
2022-12-25T07:23:41.534Z,90.49
2022-12-25T07:26:11.416Z,90.77
2022-12-25T07:28:41.266Z,90.41
2022-12-25T07:31:12.078Z,90.23
2022-12-25T07:33:40.723Z,90.96
2022-12-25T07:36:12.916Z,90.25
2022-12-25T07:38:41.668Z,90.63
2022-12-25T07:41:11.081Z,90.44
2022-12-25T07:43:40.879Z,90.62
2022-12-25T07:46:09.306Z,90.38
2022-12-25T07:48:38.487Z,90.78
2022-12-25T07:51:08.310Z,90.81
2022-12-25T07:53:37.182Z,90.99
2022-12-25T07:56:07.519Z,90.98
2022-12-25T07:58:35.951Z,91.09
2022-12-25T08:01:07.244Z,91.25
2022-12-25T08:03:36.276Z,91.56
2022-12-25T08:06:06.856Z,91.95
2022-12-25T08:08:35.321Z,92.05
2022-12-25T08:11:03.778Z,90.94
2022-12-25T08:13:32.247Z,91.22
2022-12-25T08:16:01.448Z,92.36
2022-12-25T08:18:31.786Z,92.06
2022-12-25T08:21:03.733Z,91.92
2022-12-25T08:23:31.922Z,91.54
2022-12-25T08:26:04.909Z,91.44
2022-12-25T08:28:34.379Z,91.88
2022-12-25T08:31:07.790Z,92.04
2022-12-25T08:33:38.036Z,91.55
2022-12-25T08:36:07.715Z,91.53
2022-12-25T08:38:36.005Z,91.88
2022-12-25T08:41:04.271Z,92.28
2022-12-25T08:43:32.494Z,92.15
2022-12-25T08:46:00.926Z,92.24
2022-12-25T08:48:29.244Z,92.49
2022-12-25T08:50:58.764Z,92.12
2022-12-25T08:53:27.018Z,92.48
2022-12-25T08:55:59.159Z,92.70
2022-12-25T08:58:28.809Z,92.96
2022-12-25T09:00:57.260Z,93.16
2022-12-25T09:03:25.946Z,93.13
2022-12-25T09:05:54.806Z,93.27
2022-12-25T09:08:24.396Z,93.08
2022-12-25T09:10:52.558Z,92.84
2022-12-25T09:13:20.813Z,92.24
2022-12-25T09:15:49.064Z,92.56
2022-12-25T09:18:17.154Z,92.28
2022-12-25T09:20:45.488Z,92.34
2022-12-25T09:23:14.468Z,92.17
2022-12-25T09:25:44.002Z,91.48
2022-12-25T09:28:12.114Z,91.40
2022-12-25T09:30:40.326Z,91.56
2022-12-25T09:33:08.492Z,91.78
2022-12-25T09:35:36.688Z,91.59
2022-12-25T09:38:04.899Z,91.79
2022-12-25T09:40:33.674Z,91.50
2022-12-25T09:43:04.467Z,91.32
2022-12-25T09:45:35.855Z,91.06
2022-12-25T09:48:04.488Z,90.93
2022-12-25T09:50:41.338Z,90.05
2022-12-25T09:53:12.104Z,90.24
2022-12-25T09:55:46.426Z,90.42
2022-12-25T09:58:15.942Z,89.83
2022-12-25T10:00:47.643Z,90.44
2022-12-25T10:03:23.880Z,89.51
2022-12-25T10:06:00.489Z,89.03
2022-12-25T10:08:41.188Z,89.03
2022-12-25T10:11:18.928Z,89.53
2022-12-25T10:13:59.935Z,88.50
2022-12-25T10:16:35.462Z,88.68
2022-12-25T10:19:15.992Z,89.56
2022-12-25T10:21:44.459Z,88.79
2022-12-25T10:24:20.713Z,89.03
2022-12-25T10:26:50.157Z,88.86
2022-12-25T10:29:21.255Z,88.38
2022-12-25T10:31:51.215Z,88.51
2022-12-25T10:34:19.811Z,88.07
2022-12-25T10:36:50.074Z,88.31
2022-12-25T10:39:19.282Z,87.98
2022-12-25T10:42:12.611Z,87.39
2022-12-25T10:44:42.058Z,87.41
2022-12-25T10:47:10.215Z,87.89
2022-12-25T10:49:39.892Z,87.54
2022-12-25T10:52:20.527Z,87.00
2022-12-25T10:54:49.040Z,87.13
2022-12-25T10:57:18.932Z,87.50
2022-12-25T10:59:50.326Z,86.71
2022-12-25T11:02:22.993Z,86.68
2022-12-25T11:04:51.873Z,86.74
2022-12-25T11:07:24.260Z,86.49
2022-12-25T11:09:55.442Z,86.71
2022-12-25T11:12:31.051Z,86.71
2022-12-25T11:15:03.322Z,86.29
2022-12-25T11:17:31.423Z,86.82
2022-12-25T11:20:01.069Z,85.98
2022-12-25T11:22:29.594Z,85.94
2022-12-25T11:24:57.652Z,86.04
2022-12-25T11:27:27.621Z,85.49
2022-12-25T11:29:58.453Z,85.71
2022-12-25T11:32:31.169Z,85.53
2022-12-25T11:35:00.197Z,85.54
2022-12-25T11:37:34.176Z,84.78
2022-12-25T11:40:02.748Z,86.04
2022-12-25T11:42:33.912Z,85.30
2022-12-25T11:45:04.239Z,85.35
2022-12-25T11:47:37.552Z,84.40
2022-12-25T11:50:09.027Z,84.94
2022-12-25T11:52:38.709Z,85.40
2022-12-25T11:55:12.025Z,84.36
2022-12-25T11:57:40.684Z,83.33
2022-12-25T12:00:12.376Z,84.06
2022-12-25T12:02:45.387Z,84.12
2022-12-25T12:05:19.128Z,84.09
2022-12-25T12:07:55.080Z,83.58
2022-12-25T12:10:29.575Z,84.05
2022-12-25T12:13:07.675Z,83.33
2022-12-25T12:15:42.243Z,83.61
2022-12-25T12:18:20.579Z,83.80
2022-12-25T12:20:59.031Z,83.14
2022-12-25T12:23:28.408Z,83.78
2022-12-25T12:25:56.947Z,83.51
2022-12-25T12:28:27.741Z,83.31
2022-12-25T12:31:01.444Z,83.11
2022-12-25T12:33:34.682Z,83.62
2022-12-25T12:36:04.494Z,82.77
2022-12-25T12:38:34.044Z,82.87
2022-12-25T12:41:03.385Z,82.49
2022-12-25T12:43:34.622Z,82.89
2022-12-25T12:46:07.161Z,82.47
2022-12-25T12:48:45.045Z,82.22
2022-12-25T12:51:15.174Z,82.13
2022-12-25T12:53:44.085Z,82.05
2022-12-25T12:56:16.081Z,81.81
2022-12-25T12:58:48.559Z,81.91
2022-12-25T13:01:46.316Z,82.04
2022-12-25T13:04:46.967Z,81.33
2022-12-25T13:07:26.892Z,81.55
2022-12-25T13:10:05.380Z,81.28
2022-12-25T13:12:33.642Z,80.93
2022-12-25T13:15:02.024Z,81.91
2022-12-25T13:17:30.327Z,81.74
2022-12-25T13:20:01.256Z,81.80
2022-12-25T13:22:32.461Z,81.88
2022-12-25T13:25:02.215Z,81.86
2022-12-25T13:27:31.856Z,81.27
2022-12-25T13:30:00.473Z,81.63
2022-12-25T13:32:31.243Z,80.82
2022-12-25T13:35:01.174Z,81.41
2022-12-25T13:37:31.360Z,81.76
2022-12-25T13:40:01.775Z,81.36
2022-12-25T13:42:32.229Z,81.50
2022-12-25T13:45:01.549Z,81.48
2022-12-25T13:47:32.909Z,81.85
2022-12-25T13:50:14.669Z,81.65
2022-12-25T13:52:43.215Z,81.25
2022-12-25T13:55:13.961Z,81.40
2022-12-25T13:57:45.300Z,81.09
2022-12-25T14:00:19.543Z,81.51
2022-12-25T14:02:48.543Z,81.72
2022-12-25T14:05:42.837Z,81.76
2022-12-25T14:08:15.614Z,81.16
2022-12-25T14:10:46.003Z,80.76
2022-12-25T14:13:15.488Z,80.57
2022-12-25T14:15:44.973Z,80.75
2022-12-25T14:18:15.681Z,81.65
2022-12-25T14:20:57.845Z,81.56
2022-12-25T14:23:26.121Z,81.42
2022-12-25T14:25:54.276Z,81.22
2022-12-25T14:28:32.448Z,81.48
2022-12-25T14:31:01.556Z,81.45
2022-12-25T14:33:33.915Z,81.57
2022-12-25T14:36:03.891Z,81.45
2022-12-25T14:38:35.144Z,81.06
2022-12-25T14:41:05.471Z,81.35
2022-12-25T14:43:36.407Z,81.14
2022-12-25T14:46:06.870Z,81.62
2022-12-25T14:48:35.328Z,80.76
2022-12-25T14:51:07.027Z,81.62
2022-12-25T14:53:39.935Z,80.92
2022-12-25T14:56:10.250Z,80.60
2022-12-25T14:58:42.735Z,80.22
2022-12-25T15:01:22.030Z,80.22
2022-12-25T15:03:50.487Z,79.66
2022-12-25T15:06:22.580Z,79.72
2022-12-25T15:08:58.775Z,79.98
2022-12-25T15:11:27.213Z,79.98
2022-12-25T15:13:55.473Z,80.21
2022-12-25T15:16:25.339Z,79.80
2022-12-25T15:18:54.022Z,79.85
2022-12-25T15:21:26.822Z,80.84
2022-12-25T15:23:55.515Z,79.79
2022-12-25T15:26:24.277Z,80.49
2022-12-25T15:28:52.557Z,79.76
2022-12-25T15:31:23.459Z,80.16
2022-12-25T15:33:52.304Z,80.06
2022-12-25T15:36:20.552Z,80.65
2022-12-25T15:38:50.080Z,80.99
2022-12-25T15:41:34.455Z,81.36
2022-12-25T15:44:02.531Z,82.29
2022-12-25T15:46:55.593Z,81.75
2022-12-25T15:49:23.681Z,82.75
2022-12-25T15:51:51.855Z,82.18
2022-12-25T15:54:21.388Z,81.98
2022-12-25T15:56:51.640Z,81.93
2022-12-25T15:59:20.936Z,81.25
2022-12-25T16:01:50.727Z,81.17
2022-12-25T16:04:18.917Z,81.15
2022-12-25T16:06:47.569Z,81.00
2022-12-25T16:09:16.925Z,81.59
2022-12-25T16:11:46.600Z,82.00
2022-12-25T16:14:15.211Z,81.52
2022-12-25T16:16:43.673Z,81.46
2022-12-25T16:19:11.813Z,81.58
2022-12-25T16:21:42.431Z,81.57
2022-12-25T16:24:12.207Z,81.98
2022-12-25T16:26:40.898Z,81.95
2022-12-25T16:29:10.861Z,83.46
2022-12-25T16:31:39.635Z,83.64
2022-12-25T16:34:08.742Z,83.28
2022-12-25T16:36:37.546Z,83.56
2022-12-25T16:39:06.385Z,83.74
2022-12-25T16:41:34.658Z,83.92
2022-12-25T16:44:09.229Z,84.04
2022-12-25T16:46:41.206Z,83.82
2022-12-25T16:49:09.486Z,83.61
2022-12-25T16:51:37.611Z,84.98
2022-12-25T16:54:06.012Z,84.43
2022-12-25T16:56:36.521Z,85.17
2022-12-25T16:59:04.722Z,85.09
2022-12-25T17:01:32.959Z,85.07
2022-12-25T17:04:02.746Z,85.55
2022-12-25T17:06:31.131Z,85.45
2022-12-25T17:09:02.302Z,84.93
2022-12-25T17:11:30.752Z,86.34
2022-12-25T17:13:59.915Z,84.99
2022-12-25T17:16:30.061Z,84.52
2022-12-25T17:19:01.337Z,83.88
2022-12-25T17:21:32.690Z,84.17
2022-12-25T17:24:03.558Z,83.96
2022-12-25T17:26:32.169Z,83.45
2022-12-25T17:29:00.617Z,83.80
2022-12-25T17:31:29.225Z,83.12
2022-12-25T17:33:57.778Z,83.16
2022-12-25T17:36:25.941Z,83.25
2022-12-25T17:38:55.471Z,82.70
2022-12-25T17:41:23.532Z,83.14
2022-12-25T17:43:51.666Z,82.72
2022-12-25T17:46:21.515Z,82.59
2022-12-25T17:48:50.455Z,82.27
2022-12-25T17:51:22.247Z,82.17
2022-12-25T17:53:51.746Z,82.50
2022-12-25T17:56:21.924Z,82.55
2022-12-25T17:58:51.679Z,82.63
2022-12-25T18:01:20.468Z,83.06
2022-12-25T18:03:48.838Z,83.67
2022-12-25T18:06:18.989Z,83.16
2022-12-25T18:08:48.100Z,83.52
2022-12-25T18:11:18.213Z,83.18
2022-12-25T18:13:50.034Z,83.26
2022-12-25T18:16:19.173Z,83.73
2022-12-25T18:18:51.917Z,84.62
2022-12-25T18:21:20.964Z,84.45
2022-12-25T18:23:49.610Z,85.30
2022-12-25T18:26:18.391Z,86.69
2022-12-25T18:28:48.627Z,86.03
2022-12-25T18:31:19.072Z,86.20
2022-12-25T18:33:47.723Z,86.64
2022-12-25T18:36:17.905Z,88.56
2022-12-25T18:38:45.998Z,88.86
2022-12-25T18:41:14.180Z,89.50
2022-12-25T18:43:52.125Z,89.47
2022-12-25T18:46:25.986Z,88.70
2022-12-25T18:48:54.971Z,87.62
2022-12-25T18:51:23.146Z,87.87
2022-12-25T18:53:52.038Z,87.66
2022-12-25T18:56:21.070Z,86.91
2022-12-25T18:58:49.296Z,87.09
2022-12-25T19:01:19.401Z,87.22
2022-12-25T19:03:50.990Z,87.13
2022-12-25T19:06:43.540Z,87.26
2022-12-25T19:09:11.911Z,88.25
2022-12-25T19:11:46.585Z,88.11
2022-12-25T19:14:15.873Z,87.66
2022-12-25T19:16:44.512Z,86.99
2022-12-25T19:19:15.697Z,88.23
2022-12-25T19:21:43.955Z,88.58
2022-12-25T19:24:12.174Z,88.71
2022-12-25T19:26:40.439Z,89.46
2022-12-25T19:29:08.753Z,89.10
2022-12-25T19:31:38.269Z,88.88
2022-12-25T19:34:06.786Z,89.94
2022-12-25T19:36:36.344Z,91.02
2022-12-25T19:39:05.653Z,89.88
2022-12-25T19:41:34.282Z,90.22
2022-12-25T19:44:02.940Z,89.69
2022-12-25T19:46:33.386Z,89.02
2022-12-25T19:49:04.323Z,89.29
2022-12-25T19:51:35.071Z,88.83
2022-12-25T19:54:05.669Z,91.75
2022-12-25T19:56:34.421Z,90.25
2022-12-25T19:59:02.566Z,89.70
2022-12-25T20:01:31.503Z,89.08
2022-12-25T20:03:59.729Z,89.25
2022-12-25T20:06:29.916Z,88.96
2022-12-25T20:09:00.383Z,89.17
2022-12-25T20:11:31.309Z,88.88
2022-12-25T20:13:59.853Z,89.38
2022-12-25T20:16:28.201Z,88.97
2022-12-25T20:18:56.875Z,89.10
2022-12-25T20:21:27.223Z,89.15
2022-12-25T20:23:55.614Z,89.86
2022-12-25T20:26:27.801Z,89.54
2022-12-25T20:28:58.083Z,89.96
2022-12-25T20:31:28.454Z,89.68
2022-12-25T20:33:57.374Z,90.26
2022-12-25T20:36:29.656Z,91.10
2022-12-25T20:39:02.756Z,91.54
2022-12-25T20:41:30.966Z,92.27
2022-12-25T20:44:01.885Z,93.32
2022-12-25T20:46:30.212Z,93.08
2022-12-25T20:48:58.450Z,93.13
2022-12-25T20:51:27.365Z,93.75
2022-12-25T20:53:55.949Z,93.98
2022-12-25T20:56:26.095Z,94.18
2022-12-25T20:58:55.590Z,94.07
2022-12-25T21:01:25.521Z,94.07
2022-12-25T21:03:54.393Z,94.09
2022-12-25T21:06:22.975Z,93.62
2022-12-25T21:08:51.191Z,94.36
2022-12-25T21:11:21.303Z,94.19
2022-12-25T21:13:50.107Z,93.95
2022-12-25T21:16:20.323Z,93.31
2022-12-25T21:18:50.780Z,92.76
2022-12-25T21:21:19.368Z,92.60
2022-12-25T21:23:47.881Z,92.26
2022-12-25T21:26:18.507Z,91.04
2022-12-25T21:28:46.852Z,90.75
2022-12-25T21:31:15.038Z,91.16
2022-12-25T21:33:51.371Z,91.29
2022-12-25T21:36:23.320Z,91.12
2022-12-25T21:38:54.059Z,90.75
2022-12-25T21:41:22.211Z,91.27
2022-12-25T21:43:50.295Z,91.92
2022-12-25T21:46:18.596Z,92.69
2022-12-25T21:48:46.961Z,93.30
2022-12-25T21:51:34.175Z,93.80
2022-12-25T21:54:04.340Z,94.42
2022-12-25T21:56:36.103Z,94.79
2022-12-25T21:59:09.619Z,94.87
2022-12-25T22:01:38.915Z,94.32
2022-12-25T22:04:08.862Z,93.83
2022-12-25T22:06:54.670Z,93.22
2022-12-25T22:09:24.483Z,92.92
2022-12-25T22:12:10.210Z,92.43
2022-12-25T22:14:56.363Z,92.42
2022-12-25T22:17:43.990Z,92.72
2022-12-25T22:20:14.283Z,93.03
2022-12-25T22:22:42.406Z,93.71
2022-12-25T22:25:12.602Z,94.32
2022-12-25T22:27:41.730Z,94.24
2022-12-25T22:30:12.363Z,94.09
2022-12-25T22:32:41.448Z,95.41
2022-12-25T22:35:12.252Z,96.13
2022-12-25T22:37:40.926Z,96.33
2022-12-25T22:40:12.501Z,96.23
2022-12-25T22:42:41.625Z,96.46
2022-12-25T22:45:11.899Z,96.25
2022-12-25T22:47:40.554Z,96.01
2022-12-25T22:50:09.329Z,95.80
2022-12-25T22:52:37.724Z,95.72
2022-12-25T22:55:07.671Z,95.25
2022-12-25T22:57:37.583Z,95.10
2022-12-25T23:00:08.942Z,95.02
2022-12-25T23:02:37.248Z,94.57
2022-12-25T23:05:06.184Z,94.41
2022-12-25T23:07:34.274Z,94.05
2022-12-25T23:10:02.422Z,94.27
2022-12-25T23:12:47.530Z,93.39
2022-12-25T23:15:17.205Z,93.42
2022-12-25T23:18:03.024Z,93.30
2022-12-25T23:20:48.812Z,92.88
2022-12-25T23:23:35.001Z,92.45
2022-12-25T23:26:09.696Z,92.25
2022-12-25T23:28:56.095Z,92.01
2022-12-25T23:31:27.480Z,91.44
2022-12-25T23:33:55.770Z,90.74
2022-12-25T23:36:24.037Z,90.65
2022-12-25T23:38:52.118Z,90.72
2022-12-25T23:41:20.312Z,89.68
2022-12-25T23:43:48.448Z,90.53
2022-12-25T23:46:16.903Z,91.21
2022-12-25T23:48:46.750Z,91.08
2022-12-25T23:51:15.223Z,91.18
2022-12-25T23:53:43.279Z,91.65
2022-12-25T23:56:36.207Z,91.69
2022-12-25T23:59:04.931Z,92.10
